createdAt,value
2023-11-14T00:18:23.158Z,99662.22
2023-11-14T00:28:26.327Z,99641.22
2023-11-14T00:38:30.738Z,99657.84
2023-11-14T00:48:33.693Z,99655.13
2023-11-14T00:58:38.735Z,99649.00
2023-11-14T01:08:41.824Z,99661.88
2023-11-14T01:18:46.160Z,99681.84
2023-11-14T01:28:49.567Z,99687.38
2023-11-14T01:38:54.189Z,99673.41
2023-11-14T01:49:00.293Z,99667.63
2023-11-14T01:59:05.136Z,99671.09
2023-11-14T02:09:09.007Z,99693.69
2023-11-14T02:19:13.947Z,99717.91
2023-11-14T02:29:22.215Z,99723.22
2023-11-14T02:39:25.355Z,99711.97
2023-11-14T02:49:46.695Z,99719.63
2023-11-14T02:59:50.268Z,99753.81
2023-11-14T03:09:54.860Z,99770.84
2023-11-14T03:19:58.177Z,99787.81
2023-11-14T03:30:02.900Z,99779.28
2023-11-14T03:40:07.331Z,99775.56
2023-11-14T03:50:12.316Z,99770.72
2023-11-14T04:00:16.413Z,99775.94
2023-11-14T04:10:22.328Z,99781.28
2023-11-14T04:20:25.566Z,99774.53
2023-11-14T04:30:30.025Z,99772.56
2023-11-14T04:40:33.158Z,99783.75
2023-11-14T04:50:38.645Z,99764.03
2023-11-14T05:00:41.794Z,99774.53
2023-11-14T05:10:47.563Z,99764.53
2023-11-14T05:20:51.047Z,99767.69
2023-11-14T05:30:55.408Z,99776.41
2023-11-14T05:40:58.806Z,99797.53
2023-11-14T05:51:03.732Z,99773.88
2023-11-14T06:01:08.242Z,99784.19
2023-11-14T06:11:15.933Z,99774.59
2023-11-14T06:21:20.712Z,99806.44
2023-11-14T06:31:27.433Z,99819.53
2023-11-14T06:41:30.435Z,99829.72
2023-11-14T06:51:34.966Z,99810.84
2023-11-14T07:01:38.375Z,99809.75
2023-11-14T07:11:42.880Z,99803.69
2023-11-14T07:21:47.562Z,99863.06
2023-11-14T07:31:52.715Z,99850.78
2023-11-14T07:41:55.856Z,99882.28
2023-11-14T07:52:00.291Z,99829.69
2023-11-14T08:02:04.277Z,99813.50
2023-11-14T08:12:09.377Z,99836.91
2023-11-14T08:22:13.052Z,99844.50
2023-11-14T08:32:18.012Z,99863.78
2023-11-14T08:42:21.691Z,99831.03
2023-11-14T08:52:26.069Z,99816.13
2023-11-14T09:02:29.460Z,99832.09
2023-11-14T09:12:34.370Z,99855.06
2023-11-14T09:22:39.333Z,99828.16
2023-11-14T09:32:44.223Z,99845.56
2023-11-14T09:42:47.712Z,99841.78
2023-11-14T09:52:53.786Z,99890.47
2023-11-14T10:02:58.869Z,99888.25
2023-11-14T10:13:04.808Z,99873.84
2023-11-14T10:23:16.863Z,99865.84
2023-11-14T10:33:41.609Z,99836.19
2023-11-14T10:43:45.636Z,99834.53
2023-11-14T10:53:52.822Z,99820.06
2023-11-14T11:03:56.560Z,99820.34
2023-11-14T11:14:02.385Z,99811.19
2023-11-14T11:24:17.636Z,99799.72
2023-11-14T11:34:32.722Z,99780.44
2023-11-14T11:44:39.947Z,99765.44
2023-11-14T11:54:46.305Z,99751.38
2023-11-14T12:04:53.816Z,99738.16
2023-11-14T12:14:58.345Z,99713.28
2023-11-14T12:25:01.655Z,99704.94
2023-11-14T12:35:07.251Z,99699.69
2023-11-14T12:45:12.073Z,99691.59
2023-11-14T12:55:16.540Z,99689.09
2023-11-14T13:05:19.876Z,99680.44
2023-11-14T13:15:25.532Z,99643.09
2023-11-14T13:25:28.445Z,99636.59
2023-11-14T13:35:32.734Z,99634.78
2023-11-14T13:45:36.888Z,99624.66
2023-11-14T13:55:41.652Z,99608.63
2023-11-14T14:05:44.909Z,99600.03
2023-11-14T14:15:49.545Z,99572.63
2023-11-14T14:25:52.913Z,99561.91
2023-11-14T14:35:57.407Z,99544.94
2023-11-14T14:46:01.208Z,99534.00
2023-11-14T14:56:07.376Z,99524.88
2023-11-14T15:06:10.876Z,99521.41
2023-11-14T15:16:17.195Z,99509.34
2023-11-14T15:26:20.892Z,99504.97
2023-11-14T15:36:28.369Z,99487.16
2023-11-14T15:46:31.741Z,99493.56
2023-11-14T15:56:36.727Z,99483.13
2023-11-14T16:06:39.750Z,99469.06
2023-11-14T16:16:44.351Z,99471.28
2023-11-14T16:26:47.615Z,99445.19
2023-11-14T16:36:52.777Z,99440.38
2023-11-14T16:46:55.857Z,99427.69
2023-11-14T16:57:00.440Z,99419.16
2023-11-14T17:07:04.167Z,99421.16
2023-11-14T17:17:08.668Z,99392.28
2023-11-14T17:27:14.254Z,99382.31
2023-11-14T17:37:18.766Z,99371.75
2023-11-14T17:47:23.085Z,99350.22
2023-11-14T17:57:29.901Z,99332.59
2023-11-14T18:07:33.039Z,99321.47
2023-11-14T18:17:37.872Z,99288.06
2023-11-14T18:27:40.928Z,99292.59
2023-11-14T18:37:45.625Z,99286.28
2023-11-14T18:47:49.000Z,99285.56
2023-11-14T18:57:53.930Z,99306.34
2023-11-14T19:07:57.267Z,99328.72
2023-11-14T19:18:01.943Z,99357.38
2023-11-14T19:28:05.101Z,99403.69
2023-11-14T19:38:09.923Z,99429.41
2023-11-14T19:48:13.224Z,99466.16
2023-11-14T19:58:17.872Z,99515.25
2023-11-14T20:08:21.891Z,99560.94
2023-11-14T20:18:27.513Z,99570.06
2023-11-14T20:28:31.535Z,99613.59
2023-11-14T20:38:36.023Z,99641.34
2023-11-14T20:48:39.642Z,99671.69
2023-11-14T20:58:44.713Z,99690.72
2023-11-14T21:08:48.398Z,99702.97
2023-11-14T21:18:53.896Z,99731.88
2023-11-14T21:28:57.464Z,99754.03
2023-11-14T21:39:02.908Z,99762.63
2023-11-14T21:49:10.713Z,99761.31
2023-11-14T21:59:15.242Z,99782.44
2023-11-14T22:09:18.692Z,99799.56
2023-11-14T22:19:23.900Z,99811.69
2023-11-14T22:29:27.394Z,99840.09
2023-11-14T22:39:32.569Z,99871.63
2023-11-14T22:49:36.773Z,99881.06
2023-11-14T22:59:41.755Z,99910.41
2023-11-14T23:09:45.884Z,99941.91
2023-11-14T23:19:50.510Z,99971.81
2023-11-14T23:29:53.615Z,100001.50
2023-11-14T23:39:58.426Z,100028.13
2023-11-14T23:50:01.960Z,100032.22
